Flight Track Log - Related Links

Times and Time Zones

All times are in EDT time to prevent confusion due to time zone crossing. See the C-GHVM flight status page for this flight to view local times or setup timezone preferences in your user account.

Time Position Orientation Groundspeed Altitude Reporting Facility
EDT Latitude Longitude Course Direction KTS MPH feet Rate Location/Type
Sun 07:12:22 PM 49.9333 -119.3667 360° North 10 12 1,300  Level Vancouver Center
Sun 07:13:22 PM 49.9333 -119.3667 360° North 20 23 1,400 50 Climbing Vancouver Center
Sun 07:14:22 PM 49.9500 -119.3667 360° North 20 23 1,400  Level Vancouver Center
Sun 07:15:22 PM 49.9500 -119.3667 360° North 10 12 1,400  Level Vancouver Center
Sun 07:16:22 PM 49.9333 -119.3667 180° South 50 58 1,400 650 Level Vancouver Center
Sun 07:17:22 PM 49.9000 -119.3667 180° South 120 138 2,700 1,400 Climbing Vancouver Center
Sun 07:18:22 PM 49.8667 -119.3667 180° South 120 138 4,200 1,150 Climbing Vancouver Center
Sun 07:19:22 PM 49.8500 -119.4167 243° Southwest 140 161 5,000 850 Climbing Vancouver Center
Sun 07:20:22 PM 49.8333 -119.5000 253° West 160 184 5,900 900 Climbing Vancouver Center
Sun 07:21:22 PM 49.8167 -119.5500 243° Southwest 170 196 6,800 1,000 Climbing Vancouver Center
Sun 07:22:22 PM 49.7833 -119.5833 213° Southwest 160 184 7,900 1,050 Climbing Vancouver Center
Sun 07:23:22 PM 49.7500 -119.6333 224° Southwest 160 184 8,900 1,000 Climbing Vancouver Center
Sun 07:24:22 PM 49.7000 -119.6667 203° Southwest 160 184 9,900 1,000 Climbing Vancouver Center
Sun 07:25:22 PM 49.6500 -119.7000 203° Southwest 160 184 10,900 900 Climbing Vancouver Center
Sun 07:26:22 PM 49.6167 -119.7333 213° Southwest 160 184 11,700 500 Climbing Vancouver Center
Sun 07:27:22 PM 49.6167 -119.8000 270° West 190 219 11,900 100 Climbing Vancouver Center
Sun 07:28:22 PM 49.6000 -119.8833 253° West 190 219 11,900 150 Level Vancouver Center
Sun 07:29:22 PM 49.6167 -119.9833 284° West 200 230 12,200 400 Climbing Vancouver Center
Sun 07:30:22 PM 49.6167 -120.0667 270° West 190 219 12,700 450 Climbing Vancouver Center
Sun 07:31:22 PM 49.6000 -120.1167 243° Southwest 180 207 13,100 500 Climbing Vancouver Center
Sun 07:32:22 PM 49.6000 -120.2000 270° West 180 207 13,700 550 Climbing Vancouver Center
Sun 07:33:22 PM 49.6000 -120.2667 270° West 180 207 14,200 500 Climbing Vancouver Center
Sun 07:34:22 PM 49.5833 -120.3500 253° West 180 207 14,700 500 Climbing Vancouver Center
Sun 07:35:22 PM 49.5833 -120.4333 270° West 180 207 15,200 600 Climbing Vancouver Center
Sun 07:36:22 PM 49.5833 -120.5000 270° West 180 207 15,900 500 Climbing Vancouver Center
Sun 07:37:22 PM 49.5833 -120.5833 270° West 180 207 16,200 100 Climbing Vancouver Center
Sun 07:38:22 PM 49.5833 -120.6500 270° West 190 219 16,100 -50 Descending Vancouver Center
Sun 07:39:22 PM 49.5833 -120.7667 270° West 200 230 16,100  Level Vancouver Center
Sun 07:40:22 PM 49.5667 -120.8333 249° West 200 230 16,100  Level Vancouver Center
Sun 07:41:22 PM 49.5667 -120.9167 270° West 200 230 16,100  Level Vancouver Center
Sun 07:42:22 PM 49.5667 -121.0167 270° West 200 230 16,100  Level Vancouver Center
Sun 07:43:22 PM 49.5500 -121.1000 253° West 200 230 16,100  Level Vancouver Center
Sun 07:44:22 PM 49.5667 -121.1667 291° West 200 230 16,100  Level Vancouver Center
Sun 07:45:22 PM 49.5500 -121.2500 253° West 200 230 16,100  Level Vancouver Center
Sun 07:46:22 PM 49.5500 -121.3500 270° West 200 230 16,100  Level Vancouver Center
Sun 07:47:22 PM 49.5500 -121.4333 270° West 200 230 16,100 -50 Level Vancouver Center
Sun 07:48:22 PM 49.5333 -121.5167 253° West 200 230 16,000 -300 Descending Vancouver Center
Sun 07:49:22 PM 49.5333 -121.6167 270° West 200 230 15,500 -450 Descending Vancouver Center
Sun 07:50:22 PM 49.5167 -121.6833 249° West 200 230 15,100 -200 Descending Vancouver Center
Sun 07:51:22 PM 49.5167 -121.7667 270° West 180 207 15,100  Level Vancouver Center
Sun 07:52:22 PM 49.5167 -121.8500 270° West 170 196 15,100  Level Vancouver Center
Sun 07:53:22 PM 49.5000 -121.9000 243° Southwest 170 196 15,100 -50 Level Vancouver Center
Sun 07:54:22 PM 49.5000 -121.9667 270° West 170 196 15,000 -350 Descending Vancouver Center
Sun 07:55:22 PM 49.5167 -122.0500 287° West 180 207 14,400 -1,000 Descending Vancouver Center
Sun 07:56:22 PM 49.4833 -122.1333 238° Southwest 190 219 13,000 -1,400 Descending Vancouver Center
Sun 07:57:22 PM 49.4500 -122.1833 224° Southwest 200 230 11,600 -1,500 Descending Vancouver Center
Sun 07:58:22 PM 49.4167 -122.2667 238° Southwest 200 230 10,000 -1,200 Descending Vancouver Center
Sun 07:59:22 PM 49.4000 -122.3333 249° West 180 207 9,200 -550 Descending Vancouver Center
Sun 08:00:22 PM 49.3667 -122.3667 213° Southwest 150 173 8,900 -650 Descending Vancouver Center
Sun 08:01:22 PM 49.3167 -122.4167 213° Southwest 150 173 7,900 -850 Descending Vancouver Center
Sun 08:02:22 PM 49.2833 -122.4500 213° Southwest 180 207 7,200 -650 Descending Vancouver Center
Sun 08:03:22 PM 49.2500 -122.5000 224° Southwest 170 196 6,600 -850 Descending Vancouver Center
Sun 08:04:22 PM 49.2000 -122.5500 213° Southwest 180 207 5,500 -1,050 Descending Vancouver Center
Sun 08:05:22 PM 49.1667 -122.5500 180° South 170 196 4,500 -950 Descending Vancouver Center
Sun 08:06:22 PM 49.2000 -122.5167 33° Northeast 170 196 3,600 -950 Descending Vancouver Center
Sun 08:07:22 PM 49.2000 -122.6000 270° West 170 196 2,600 -1,000 Descending Vancouver Center

Login

Don't have an account? Register now (free) for customized features, flight alerts, and more!